Time;durP1;ratioP1;P1;durP2;ratioP2;P2;SDS_P1;SDS_P2;PMS_P1;PMS_P2;Temp;Humidity;BMP_temperature;BMP_pressure;BME280_temperature;BME280_humidity;BME280_pressure;Samples;Min_cycle;Max_cycle;Signal;HPM_P1;HPM_P2
2023/07/19 00:00:30;;;;;;;3.83;1.45;;;;;;;21.49;46.89;101369.28;5142248;27;20115;-69
2023/07/19 00:02:58;;;;;;;2.97;1.60;;;;;;;21.48;46.74;101371.22;5141598;27;20047;-69
2023/07/19 00:05:26;;;;;;;4.43;1.90;;;;;;;21.47;46.90;101364.09;5140664;27;20043;-69
2023/07/19 00:07:55;;;;;;;3.53;1.42;;;;;;;21.45;46.92;101363.56;5137488;27;20173;-69
2023/07/19 00:10:24;;;;;;;7.25;2.10;;;;;;;21.42;46.87;101364.94;5137473;27;20073;-69
2023/07/19 00:12:51;;;;;;;4.43;1.45;;;;;;;21.41;47.00;101357.84;5142417;27;20047;-69
2023/07/19 00:15:24;;;;;;;3.55;1.52;;;;;;;21.40;47.01;101367.16;5142755;27;20050;-69
2023/07/19 00:17:52;;;;;;;5.15;1.90;;;;;;;21.39;47.05;101359.22;5141900;27;20047;-69
2023/07/19 00:20:20;;;;;;;4.53;1.40;;;;;;;21.38;47.00;101355.69;5135799;27;20134;-69
2023/07/19 00:22:48;;;;;;;2.60;1.45;;;;;;;21.35;47.10;101341.75;5141586;27;20100;-68
2023/07/19 00:25:17;;;;;;;3.03;1.52;;;;;;;21.37;47.05;101351.31;5143250;27;20050;-69
2023/07/19 00:27:46;;;;;;;3.75;1.42;;;;;;;21.36;47.07;101346.13;5140005;28;20040;-69
2023/07/19 00:30:14;;;;;;;3.75;1.35;;;;;;;21.35;47.10;101348.03;5142597;28;20047;-68
2023/07/19 00:32:42;;;;;;;5.45;1.70;;;;;;;21.33;47.07;101339.28;5143853;28;20076;-69
2023/07/19 00:35:11;;;;;;;3.15;1.60;;;;;;;21.31;47.03;101336.03;5142869;27;20055;-68
2023/07/19 00:37:38;;;;;;;3.72;1.70;;;;;;;21.30;47.32;101336.31;5143557;28;20047;-69
2023/07/19 00:40:07;;;;;;;3.92;1.30;;;;;;;21.28;47.10;101331.13;5141596;28;20476;-69
2023/07/19 00:42:36;;;;;;;5.97;1.98;;;;;;;21.28;47.12;101328.38;5141633;28;20100;-69
2023/07/19 00:45:05;;;;;;;4.80;1.35;;;;;;;21.25;47.24;101323.47;5139125;28;20146;-69
2023/07/19 00:47:34;;;;;;;5.57;1.52;;;;;;;21.25;47.40;101328.94;5138737;28;20047;-70
2023/07/19 00:50:02;;;;;;;3.50;1.38;;;;;;;21.24;47.47;101324.59;5140474;27;20063;-69
2023/07/19 00:52:29;;;;;;;2.85;1.90;;;;;;;21.23;47.48;101317.47;5138907;28;20047;-69
2023/07/19 00:54:57;;;;;;;5.60;1.55;;;;;;;21.21;47.47;101314.19;5140619;27;20097;-69
2023/07/19 00:57:25;;;;;;;4.25;1.67;;;;;;;21.21;47.55;101321.56;5144042;27;20043;-69
2023/07/19 00:59:54;;;;;;;7.18;1.60;;;;;;;21.18;47.64;101313.94;5145024;27;20043;-69
2023/07/19 01:02:23;;;;;;;3.13;1.30;;;;;;;21.17;47.56;101321.31;5142664;27;20055;-69
2023/07/19 01:04:51;;;;;;;2.92;1.27;;;;;;;21.16;47.69;101310.66;5142338;27;20067;-69
2023/07/19 01:07:19;;;;;;;4.68;1.60;;;;;;;21.13;47.64;101310.13;5144957;27;20046;-69
2023/07/19 01:09:48;;;;;;;3.58;1.33;;;;;;;21.12;47.91;101307.66;5145067;27;20043;-69
2023/07/19 01:12:17;;;;;;;2.42;1.30;;;;;;;21.11;47.89;101309.59;5142259;27;20043;-68
2023/07/19 01:14:45;;;;;;;5.85;1.55;;;;;;;21.10;47.74;101302.47;5144124;27;20057;-69
2023/07/19 01:17:14;;;;;;;2.95;1.58;;;;;;;21.09;47.86;101302.75;5141940;27;20063;-69
2023/07/19 01:19:41;;;;;;;3.60;1.42;;;;;;;21.08;47.96;101303.84;5144296;27;20047;-68
2023/07/19 01:22:10;;;;;;;3.25;1.58;;;;;;;20.96;47.96;101285.06;5144330;27;20504;-69
2023/07/19 01:24:41;;;;;;;2.90;1.45;;;;;;;21.04;48.05;101309.06;5145141;27;20419;-69
2023/07/19 01:27:08;;;;;;;3.78;1.67;;;;;;;21.02;48.14;101294.88;5142135;27;20047;-69
2023/07/19 01:29:49;;;;;;;3.55;1.45;;;;;;;20.94;48.19;101280.97;5145687;27;20077;-69
2023/07/19 01:32:17;;;;;;;5.90;1.45;;;;;;;21.00;48.30;101302.53;5143509;27;20072;-69
2023/07/19 01:34:45;;;;;;;3.80;1.38;;;;;;;20.99;48.20;101294.59;5144574;27;20039;-69
2023/07/19 01:37:13;;;;;;;3.10;1.27;;;;;;;20.97;48.21;101289.44;5141107;27;20112;-69
2023/07/19 01:39:42;;;;;;;3.30;1.50;;;;;;;20.97;48.27;101283.16;5143918;27;20455;-69
2023/07/19 01:42:10;;;;;;;4.25;1.60;;;;;;;20.96;48.29;101295.16;5141849;27;20084;-69
2023/07/19 01:44:38;;;;;;;4.45;1.42;;;;;;;20.94;48.30;101280.97;5142625;27;20047;-69
2023/07/19 01:47:06;;;;;;;4.97;1.67;;;;;;;20.93;48.52;101279.34;5143299;27;20050;-68
2023/07/19 01:49:34;;;;;;;2.90;1.52;;;;;;;20.92;48.53;101286.72;5141835;27;20043;-69
2023/07/19 01:52:01;;;;;;;2.90;1.58;;;;;;;20.91;48.58;101284.25;5143596;27;20050;-68
2023/07/19 01:54:29;;;;;;;2.20;1.45;;;;;;;20.90;48.73;101283.44;5144747;27;20043;-68
2023/07/19 01:56:59;;;;;;;2.20;1.23;;;;;;;20.90;48.61;101288.09;5142957;27;20363;-69
2023/07/19 01:59:26;;;;;;;7.97;1.83;;;;;;;20.89;48.89;101287.28;5141765;27;20055;-68
2023/07/19 02:01:55;;;;;;;4.38;1.50;;;;;;;20.87;48.82;101275.81;5142198;27;20051;-69
2023/07/19 02:04:23;;;;;;;4.65;1.60;;;;;;;20.88;48.72;101282.09;5140573;27;20177;-69
2023/07/19 02:06:50;;;;;;;2.85;1.15;;;;;;;20.85;48.76;101269.00;5139628;27;20043;-69
2023/07/19 02:09:18;;;;;;;2.13;1.33;;;;;;;20.86;48.87;101276.09;5142941;27;20351;-68
2023/07/19 02:11:46;;;;;;;2.25;1.42;;;;;;;20.85;48.91;101266.25;5142548;27;20119;-68
2023/07/19 02:14:15;;;;;;;2.53;1.40;;;;;;;20.84;48.94;101262.72;5143903;27;20058;-69
2023/07/19 02:16:43;;;;;;;3.40;1.58;;;;;;;20.84;49.04;101259.16;5143005;27;20519;-69
2023/07/19 02:19:11;;;;;;;4.55;1.50;;;;;;;20.83;49.08;101257.53;5139214;27;20047;-69
2023/07/19 02:21:38;;;;;;;4.05;1.40;;;;;;;20.82;48.92;101262.16;5143235;27;20035;-68
2023/07/19 02:24:06;;;;;;;3.00;1.40;;;;;;;20.81;48.99;101257.81;5143575;27;20142;-69
2023/07/19 02:26:34;;;;;;;3.72;1.58;;;;;;;20.80;49.08;101256.19;5142903;27;20092;-68
2023/07/19 02:29:02;;;;;;;2.90;1.25;;;;;;;20.79;49.13;101262.75;5144200;27;20104;-69
2023/07/19 02:31:31;;;;;;;6.32;1.60;;;;;;;20.77;49.14;101251.28;5137968;27;20046;-69
2023/07/19 02:33:59;;;;;;;4.80;1.60;;;;;;;20.78;49.14;101248.28;5139679;27;20043;-67
2023/07/19 02:36:27;;;;;;;4.18;1.60;;;;;;;20.76;49.27;101242.28;5143668;27;20564;-68
2023/07/19 02:38:55;;;;;;;2.30;1.15;;;;;;;20.75;49.49;101248.84;5140207;27;20047;-69
2023/07/19 02:41:22;;;;;;;3.35;1.55;;;;;;;20.75;49.32;101253.50;5139116;27;20431;-69
2023/07/19 02:43:50;;;;;;;3.63;1.63;;;;;;;20.74;49.46;101254.59;5142965;27;20051;-68
2023/07/19 02:46:18;;;;;;;5.22;1.70;;;;;;;20.72;49.59;101251.31;5143359;27;20054;-68
2023/07/19 02:48:47;;;;;;;5.00;2.25;;;;;;;20.71;49.82;101255.97;5142184;27;20043;-68
2023/07/19 02:51:15;;;;;;;4.82;1.50;;;;;;;20.70;49.79;101259.78;5141247;27;20051;-69
2023/07/19 02:53:43;;;;;;;5.57;1.65;;;;;;;20.61;49.78;101249.72;5144809;27;20051;-68
2023/07/19 02:56:11;;;;;;;2.75;1.50;;;;;;;20.66;49.50;101258.72;5141821;27;20044;-69
2023/07/19 02:58:39;;;;;;;3.13;1.50;;;;;;;20.67;49.66;101265.00;5138923;27;20050;-69
2023/07/19 03:01:07;;;;;;;3.35;1.88;;;;;;;20.65;49.75;101262.53;5142642;27;20073;-69
2023/07/19 03:03:34;;;;;;;2.47;1.35;;;;;;;20.64;49.80;101258.19;5141312;27;20054;-69
2023/07/19 03:06:04;;;;;;;3.40;1.67;;;;;;;20.63;49.68;101261.19;5141844;27;20376;-68
2023/07/19 03:08:32;;;;;;;4.97;1.80;;;;;;;20.63;49.71;101258.44;5133031;27;20048;-68
2023/07/19 03:11:00;;;;;;;5.45;1.63;;;;;;;20.61;49.60;101253.28;5139939;27;20039;-68
2023/07/19 03:13:27;;;;;;;4.35;1.63;;;;;;;20.60;49.70;101254.38;5143622;27;20047;-69
2023/07/19 03:15:55;;;;;;;4.72;1.63;;;;;;;20.59;49.80;101260.94;5142352;27;20039;-69
2023/07/19 03:18:23;;;;;;;2.88;1.42;;;;;;;20.59;49.85;101271.03;5140990;27;20081;-68
2023/07/19 03:20:57;;;;;;;4.60;1.67;;;;;;;20.58;49.88;101272.13;5142801;27;20047;-69
2023/07/19 03:23:27;;;;;;;5.63;1.73;;;;;;;20.55;49.94;101262.56;5140905;27;20051;-68
2023/07/19 03:25:57;;;;;;;4.90;1.90;;;;;;;20.55;50.12;101267.22;5135914;27;20043;-68
2023/07/19 03:28:26;;;;;;;8.00;1.63;;;;;;;20.55;50.10;101278.16;5143236;27;20047;-68
2023/07/19 03:30:54;;;;;;;3.13;1.63;;;;;;;20.53;50.01;101275.69;5142646;27;20043;-68
2023/07/19 03:33:23;;;;;;;3.25;1.80;;;;;;;20.53;49.92;101277.59;5137127;27;20116;-68
2023/07/19 03:35:51;;;;;;;4.40;1.60;;;;;;;20.51;49.90;101275.16;5141265;27;20048;-68
2023/07/19 03:38:19;;;;;;;2.67;1.42;;;;;;;20.51;49.96;101274.34;5140750;27;20055;-68
2023/07/19 03:40:48;;;;;;;4.40;1.92;;;;;;;20.51;50.25;101271.59;5139755;27;20046;-68
2023/07/19 03:43:16;;;;;;;5.47;1.70;;;;;;;20.50;49.85;101270.78;5140594;27;20092;-68
2023/07/19 03:45:44;;;;;;;4.68;1.75;;;;;;;20.48;50.24;101272.97;5138303;27;20419;-70
2023/07/19 03:48:12;;;;;;;3.92;1.30;;;;;;;20.48;50.14;101278.44;5138322;27;20054;-69
2023/07/19 03:50:39;;;;;;;4.25;2.13;;;;;;;20.46;50.38;101277.91;5139672;27;20076;-68
2023/07/19 03:53:07;;;;;;;3.65;1.73;;;;;;;20.47;50.32;101276.81;5138538;27;20050;-68
2023/07/19 03:55:35;;;;;;;4.97;1.65;;;;;;;20.46;50.43;101272.44;5140692;27;20039;-68
2023/07/19 03:58:04;;;;;;;2.85;1.77;;;;;;;20.45;50.36;101271.63;5143051;27;20491;-69
2023/07/19 04:00:32;;;;;;;5.57;1.30;;;;;;;20.45;50.38;101277.09;5139874;27;20457;-70
2023/07/19 04:03:00;;;;;;;5.32;2.10;;;;;;;20.45;50.58;101279.81;5142342;27;20043;-69
2023/07/19 04:05:28;;;;;;;3.60;1.80;;;;;;;20.44;50.44;101272.72;5139917;27;20059;-69
2023/07/19 04:08:01;;;;;;;2.88;1.88;;;;;;;20.43;50.45;101273.00;5140373;27;20085;-68
2023/07/19 04:10:28;;;;;;;4.32;1.85;;;;;;;20.34;50.66;101261.78;4779317;27;10000130;-69
2023/07/19 04:12:56;;;;;;;3.35;1.50;;;;;;;20.42;50.65;101271.34;5138168;27;20043;-71
2023/07/19 04:15:25;;;;;;;4.70;1.70;;;;;;;20.41;50.67;101272.44;5138547;27;20058;-69
2023/07/19 04:17:53;;;;;;;4.95;2.08;;;;;;;20.40;50.60;101266.16;5140026;27;20063;-69
2023/07/19 04:20:22;;;;;;;3.30;1.80;;;;;;;20.39;50.62;101269.19;5136962;28;20089;-69
2023/07/19 04:22:50;;;;;;;2.92;1.60;;;;;;;20.39;50.72;101269.19;5139354;27;20579;-69
2023/07/19 04:25:18;;;;;;;2.97;1.65;;;;;;;20.38;50.67;101273.81;5140917;27;20078;-69
2023/07/19 04:27:46;;;;;;;5.00;2.25;;;;;;;20.38;50.94;101279.28;5137106;28;20047;-70
2023/07/19 04:30:14;;;;;;;6.05;1.67;;;;;;;20.38;50.72;101279.28;5138969;27;20051;-70
2023/07/19 04:32:43;;;;;;;4.95;1.90;;;;;;;20.38;50.91;101278.44;5136572;28;20339;-69
2023/07/19 04:35:11;;;;;;;5.32;1.70;;;;;;;20.36;50.78;101275.16;5144843;27;20043;-69
2023/07/19 04:37:40;;;;;;;5.70;1.65;;;;;;;20.36;50.71;101275.16;5140690;28;20069;-69
2023/07/19 04:40:08;;;;;;;3.65;1.90;;;;;;;20.34;50.80;101282.81;5140390;27;20058;-68
2023/07/19 04:42:36;;;;;;;4.03;1.60;;;;;;;20.26;51.02;101269.72;5143479;27;20039;-69
2023/07/19 04:45:05;;;;;;;5.93;2.00;;;;;;;20.32;50.95;101282.25;5135819;27;20047;-69
2023/07/19 04:47:32;;;;;;;4.63;1.90;;;;;;;20.31;50.74;101289.63;5137837;28;20043;-68
2023/07/19 04:50:02;;;;;;;2.85;1.83;;;;;;;20.31;50.72;101291.56;5139075;27;20107;-69
2023/07/19 04:52:29;;;;;;;5.72;3.00;;;;;;;20.30;50.91;101293.47;5141345;27;20155;-69
2023/07/19 04:54:57;;;;;;;3.70;1.70;;;;;;;20.30;50.79;101293.47;5138636;28;20051;-69
2023/07/19 04:57:25;;;;;;;3.22;1.67;;;;;;;20.28;50.67;101289.38;5141654;27;20051;-68
2023/07/19 04:59:53;;;;;;;7.65;2.47;;;;;;;20.27;50.95;101294.00;5143189;27;20047;-68
2023/07/19 05:02:20;;;;;;;5.47;2.53;;;;;;;20.28;50.89;101300.28;5134176;28;20043;-67
2023/07/19 05:04:48;;;;;;;5.38;2.47;;;;;;;20.26;51.05;101297.84;5132803;28;20051;-68
2023/07/19 05:07:17;;;;;;;5.88;2.30;;;;;;;20.25;51.11;101306.31;5140035;28;20078;-68
2023/07/19 05:09:45;;;;;;;6.63;2.10;;;;;;;20.24;51.12;101296.47;5142562;27;20127;-69
2023/07/19 05:12:13;;;;;;;3.55;2.15;;;;;;;20.23;50.99;101303.03;5137633;28;20556;-70
2023/07/19 05:14:41;;;;;;;6.57;2.38;;;;;;;20.21;51.22;101297.84;5141775;28;20047;-70
2023/07/19 05:17:09;;;;;;;4.32;2.17;;;;;;;20.22;51.19;101301.38;5140611;27;20096;-69
2023/07/19 05:19:37;;;;;;;4.30;2.25;;;;;;;20.20;51.22;101301.66;5134734;28;20051;-69
2023/07/19 05:22:05;;;;;;;4.32;2.30;;;;;;;20.20;51.14;101304.41;5134469;27;20084;-69
2023/07/19 05:24:34;;;;;;;6.05;2.63;;;;;;;20.19;51.33;101302.75;5137284;28;20051;-69
2023/07/19 05:27:02;;;;;;;8.00;3.58;;;;;;;20.19;51.25;101304.66;5137445;28;20047;-70
2023/07/19 05:29:30;;;;;;;3.78;2.40;;;;;;;20.18;51.32;101300.31;5138457;27;20266;-70
2023/07/19 05:31:58;;;;;;;4.68;2.72;;;;;;;20.18;51.26;101298.38;5133963;28;20100;-70
2023/07/19 05:34:26;;;;;;;5.53;2.20;;;;;;;20.18;51.09;101300.31;5131024;28;20047;-76
2023/07/19 05:36:55;;;;;;;4.47;2.33;;;;;;;20.19;51.21;101291.03;5137897;27;20043;-69
2023/07/19 05:39:23;;;;;;;5.80;2.00;;;;;;;20.18;50.94;101301.13;5136861;27;20074;-73
2023/07/19 05:41:52;;;;;;;6.55;2.50;;;;;;;20.19;50.95;101296.47;5137011;27;20073;-72
2023/07/19 05:44:20;;;;;;;3.67;1.60;;;;;;;20.19;50.83;101297.28;5137397;27;20062;-67
2023/07/19 05:46:47;;;;;;;7.93;2.35;;;;;;;20.20;50.85;101287.19;5141912;27;20071;-73
2023/07/19 05:49:15;;;;;;;4.65;1.83;;;;;;;20.21;50.93;101297.03;5139551;27;20051;-72
2023/07/19 05:51:43;;;;;;;6.32;2.30;;;;;;;20.13;50.87;101282.03;5138060;27;20051;-74
2023/07/19 05:54:11;;;;;;;4.75;1.90;;;;;;;20.20;50.78;101295.38;5137143;27;20051;-73
2023/07/19 05:56:39;;;;;;;3.45;1.55;;;;;;;20.21;50.89;101295.13;5139037;27;20081;-73
2023/07/19 05:59:08;;;;;;;5.50;2.60;;;;;;;20.21;50.95;101299.75;5138788;27;20047;-70
2023/07/19 06:01:37;;;;;;;6.38;2.28;;;;;;;20.21;50.96;101295.13;5134567;27;20078;-69
2023/07/19 06:04:05;;;;;;;5.00;2.03;;;;;;;20.19;50.93;101294.56;5136041;27;20119;-70
2023/07/19 06:06:34;;;;;;;3.88;1.67;;;;;;;20.22;51.03;101307.66;5139790;27;20055;-69
2023/07/19 06:09:05;;;;;;;6.25;2.60;;;;;;;20.22;51.16;101302.22;5140162;27;20124;-72
2023/07/19 06:11:33;;;;;;;7.25;2.88;;;;;;;20.23;50.87;101298.38;5137016;27;20133;-69
2023/07/19 06:14:01;;;;;;;5.28;2.05;;;;;;;20.24;50.86;101300.03;5137206;27;20050;-68
2023/07/19 06:16:31;;;;;;;6.00;2.05;;;;;;;20.24;51.08;101293.75;5135331;27;20077;-68
2023/07/19 06:18:59;;;;;;;6.43;2.10;;;;;;;20.25;51.00;101300.84;5136535;27;20131;-71
2023/07/19 06:21:27;;;;;;;5.88;1.90;;;;;;;20.17;51.09;101285.03;5141520;27;20099;-69
2023/07/19 06:23:55;;;;;;;4.88;1.75;;;;;;;20.25;50.90;101298.13;5136610;27;20099;-66
2023/07/19 06:26:23;;;;;;;3.72;1.88;;;;;;;20.25;50.94;101293.47;5137331;27;20047;-68
2023/07/19 06:28:50;;;;;;;8.48;2.10;;;;;;;20.27;50.97;101295.91;5142567;27;20154;-70
2023/07/19 06:31:18;;;;;;;8.50;2.47;;;;;;;20.28;51.03;101298.38;5142121;27;20039;-68
2023/07/19 06:33:48;;;;;;;5.90;1.70;;;;;;;20.29;50.97;101288.28;5133432;27;20058;-68
2023/07/19 06:36:15;;;;;;;5.32;2.10;;;;;;;20.31;50.84;101278.72;5134665;27;20051;-69
2023/07/19 06:38:43;;;;;;;7.15;2.10;;;;;;;20.32;50.96;101282.25;5136283;27;20043;-70
2023/07/19 06:41:11;;;;;;;5.38;1.75;;;;;;;20.38;50.91;101284.75;5138166;27;20051;-71
2023/07/19 06:43:40;;;;;;;5.57;2.10;;;;;;;20.40;50.91;101284.47;5134076;27;20093;-71
2023/07/19 06:46:07;;;;;;;2.70;1.60;;;;;;;20.41;50.75;101284.19;5133670;27;20043;-69
2023/07/19 06:48:38;;;;;;;4.88;1.90;;;;;;;20.43;50.84;101281.19;5135336;27;21684;-70
2023/07/19 06:51:07;;;;;;;3.72;1.88;;;;;;;20.44;50.71;101291.00;5141198;27;20066;-70
2023/07/19 06:53:35;;;;;;;4.18;2.30;;;;;;;20.46;50.88;101292.38;5133708;27;20103;-70
2023/07/19 06:56:07;;;;;;;4.50;2.42;;;;;;;20.39;50.82;101278.19;5135468;27;20411;-69
2023/07/19 06:58:35;;;;;;;3.22;1.73;;;;;;;20.49;51.03;101291.00;5144140;27;20038;-70
2023/07/19 07:01:03;;;;;;;5.47;1.92;;;;;;;20.54;50.99;101288.25;5137375;27;20270;-70
2023/07/19 07:03:33;;;;;;;6.43;1.92;;;;;;;20.52;50.90;101290.44;5136351;27;20104;-69
2023/07/19 07:06:01;;;;;;;5.90;2.10;;;;;;;20.54;51.06;101290.16;5134679;27;20046;-69
2023/07/19 07:08:33;;;;;;;4.03;1.70;;;;;;;20.55;50.98;101289.06;5135618;27;20047;-68
2023/07/19 07:11:01;;;;;;;3.42;1.88;;;;;;;20.60;51.32;101294.50;5135476;27;20103;-68
2023/07/19 07:13:29;;;;;;;7.47;2.45;;;;;;;20.57;50.82;101295.06;5142632;27;20129;-68
2023/07/19 07:15:58;;;;;;;6.25;1.85;;;;;;;20.57;50.80;101295.06;5137638;27;20115;-69
2023/07/19 07:18:26;;;;;;;5.57;1.98;;;;;;;20.57;50.87;101295.88;5136895;27;20103;-67
2023/07/19 07:20:54;;;;;;;3.45;1.70;;;;;;;20.57;51.05;101301.34;5135964;27;21582;-68
2023/07/19 07:23:21;;;;;;;3.58;1.80;;;;;;;20.60;50.95;101292.59;5136573;27;20047;-67
2023/07/19 07:25:54;;;;;;;4.97;2.08;;;;;;;20.61;50.87;101305.16;5130772;27;20391;-68
2023/07/19 07:28:22;;;;;;;5.50;2.33;;;;;;;20.64;51.42;101310.06;5136603;27;20047;-68
2023/07/19 07:30:50;;;;;;;5.00;1.92;;;;;;;20.68;51.57;101302.97;5135979;27;20047;-68
2023/07/19 07:33:19;;;;;;;4.63;2.03;;;;;;;20.67;51.10;101295.84;5131543;27;20051;-67
2023/07/19 07:35:47;;;;;;;6.85;1.95;;;;;;;20.68;50.95;101297.50;5138566;27;20039;-68
2023/07/19 07:38:15;;;;;;;3.80;2.08;;;;;;;20.81;51.24;101293.31;5133461;27;20047;-68
2023/07/19 07:40:43;;;;;;;6.00;2.08;;;;;;;20.76;50.87;101294.19;5139202;27;20051;-68
2023/07/19 07:43:12;;;;;;;4.72;1.70;;;;;;;20.79;51.51;101295.53;5142972;27;20064;-69
2023/07/19 07:45:40;;;;;;;5.72;1.75;;;;;;;20.75;50.91;101287.09;5140225;27;20050;-68
2023/07/19 07:48:08;;;;;;;5.60;2.38;;;;;;;20.77;50.85;101293.09;5141084;27;20096;-68
2023/07/19 07:50:36;;;;;;;4.68;2.10;;;;;;;20.76;50.92;101287.91;5139234;27;20039;-67
2023/07/19 07:53:04;;;;;;;3.72;1.80;;;;;;;20.80;51.74;101288.97;4775869;27;10000159;-67
2023/07/19 07:55:40;;;;;;;6.32;2.03;;;;;;;20.82;51.13;101299.59;5137760;27;20063;-68
2023/07/19 07:58:08;;;;;;;6.82;2.38;;;;;;;20.80;51.12;101287.03;5138202;27;20046;-69
2023/07/19 08:00:37;;;;;;;6.50;2.10;;;;;;;20.79;50.97;101285.44;5133064;27;20061;-68
2023/07/19 08:03:05;;;;;;;5.82;2.08;;;;;;;20.80;51.16;101288.97;5131470;27;20416;-68
2023/07/19 08:05:33;;;;;;;7.53;2.22;;;;;;;20.80;51.13;101278.84;5132750;27;20054;-68
2023/07/19 08:08:01;;;;;;;3.92;1.70;;;;;;;20.83;51.67;101276.66;5137568;27;20043;-68
2023/07/19 08:10:29;;;;;;;6.80;2.10;;;;;;;20.90;51.51;101277.16;5134361;27;20112;-66
2023/07/19 08:12:57;;;;;;;4.78;2.33;;;;;;;20.85;51.01;101278.00;5138127;27;20075;-69
2023/07/19 08:15:25;;;;;;;6.47;1.92;;;;;;;20.86;51.04;101273.34;5135513;27;20243;-69
2023/07/19 08:17:54;;;;;;;5.47;1.92;;;;;;;20.88;51.11;101271.16;5133126;27;20059;-68
2023/07/19 08:20:22;;;;;;;4.20;2.00;;;;;;;20.96;51.04;101270.56;5134327;27;20043;-70
2023/07/19 08:22:50;;;;;;;6.60;2.03;;;;;;;20.94;50.13;101268.13;5137503;27;20417;-68
2023/07/19 08:25:20;;;;;;;2.95;1.55;;;;;;;20.90;50.12;101269.78;5134007;27;20745;-68
2023/07/19 08:27:54;;;;;;;4.70;2.22;;;;;;;20.89;49.85;101261.88;5136843;27;20043;-68
2023/07/19 08:30:23;;;;;;;2.72;1.50;;;;;;;20.88;49.76;101276.63;5134015;27;20039;-68
2023/07/19 08:32:51;;;;;;;5.30;1.30;;;;;;;20.88;49.61;101263.78;5141330;27;20119;-71
2023/07/19 08:35:21;;;;;;;5.95;1.67;;;;;;;20.88;49.54;101265.69;5137058;27;20530;-66
2023/07/19 08:37:48;;;;;;;2.83;1.58;;;;;;;20.89;49.46;101264.59;5131442;28;20043;-67
2023/07/19 08:40:17;;;;;;;2.10;1.20;;;;;;;20.93;49.37;101263.75;5135980;28;20096;-67
2023/07/19 08:42:46;;;;;;;3.47;1.58;;;;;;;20.92;49.26;101264.84;5140029;27;20043;-69
2023/07/19 08:45:14;;;;;;;3.28;1.65;;;;;;;20.93;49.26;101268.41;5130877;28;20058;-66
2023/07/19 08:47:42;;;;;;;6.55;1.73;;;;;;;20.92;49.05;101264.84;5133131;28;20049;-65
2023/07/19 08:50:12;;;;;;;4.47;1.83;;;;;;;20.93;48.90;101271.13;5133994;28;20047;-66
2023/07/19 08:52:41;;;;;;;2.03;1.42;;;;;;;20.93;49.05;101268.41;5138984;27;20055;-68
2023/07/19 08:55:09;;;;;;;5.65;1.95;;;;;;;20.93;49.40;101271.13;5136447;28;20060;-70
2023/07/19 08:57:43;;;;;;;5.28;1.65;;;;;;;20.94;49.18;101278.25;5134841;27;20113;-65
2023/07/19 09:00:12;;;;;;;6.10;1.48;;;;;;;21.03;49.15;101273.81;5139489;27;20194;-67
2023/07/19 09:02:40;;;;;;;5.10;1.40;;;;;;;20.98;49.08;101285.59;5136165;27;20519;-66
2023/07/19 09:05:09;;;;;;;2.25;1.30;;;;;;;20.98;49.03;101273.84;5135281;27;20110;-68
2023/07/19 09:07:38;;;;;;;7.03;1.90;;;;;;;20.96;48.97;101274.13;5136154;27;20043;-70
2023/07/19 09:10:10;;;;;;;6.22;1.70;;;;;;;20.98;48.92;101282.88;5136251;27;20421;-67
2023/07/19 09:12:39;;;;;;;4.22;1.52;;;;;;;21.01;49.36;101268.63;5133552;28;20047;-67
2023/07/19 09:15:08;;;;;;;5.13;1.88;;;;;;;21.03;49.17;101273.81;5132863;27;20057;-64
2023/07/19 09:17:37;;;;;;;3.10;1.45;;;;;;;21.03;49.03;101271.09;5143234;27;20073;-66
2023/07/19 09:20:07;;;;;;;6.68;2.30;;;;;;;21.07;49.10;101274.88;5140172;27;20051;-65
2023/07/19 09:22:36;;;;;;;3.92;1.48;;;;;;;21.05;49.07;101272.44;5144620;27;20104;-67
2023/07/19 09:25:05;;;;;;;7.82;1.65;;;;;;;21.05;49.04;101271.63;5141975;27;20078;-66
2023/07/19 09:27:34;;;;;;;2.85;1.65;;;;;;;21.09;49.63;101265.31;5141372;27;20497;-63
2023/07/19 09:30:03;;;;;;;4.55;1.80;;;;;;;21.09;49.44;101264.50;5138438;27;20043;-66
2023/07/19 09:32:31;;;;;;;5.90;1.92;;;;;;;21.11;49.47;101263.13;5141779;27;20047;-67
2023/07/19 09:35:04;;;;;;;3.85;1.55;;;;;;;21.11;49.36;101268.59;5143777;27;20068;-69
2023/07/19 09:37:32;;;;;;;3.75;1.50;;;;;;;21.15;49.78;101268.00;5137649;27;20426;-66
2023/07/19 09:40:00;;;;;;;3.85;1.90;;;;;;;21.15;49.51;101266.09;5138715;27;20039;-65
2023/07/19 09:42:31;;;;;;;6.57;1.65;;;;;;;21.11;49.48;101251.38;5135060;27;20054;-65
2023/07/19 09:45:01;;;;;;;6.05;2.00;;;;;;;21.19;49.51;101261.69;5149940;27;20042;-65
2023/07/19 09:47:33;;;;;;;3.72;1.58;;;;;;;21.22;49.57;101263.09;5143894;27;20085;-65
2023/07/19 09:50:02;;;;;;;4.38;2.22;;;;;;;21.21;49.51;101264.97;5155410;27;20090;-65
2023/07/19 09:52:30;;;;;;;3.95;1.42;;;;;;;21.23;49.37;101257.34;5145549;27;20384;-66
2023/07/19 09:54:58;;;;;;;7.20;2.13;;;;;;;21.24;49.41;101258.97;5142764;27;20055;-65
2023/07/19 09:57:28;;;;;;;3.50;1.90;;;;;;;21.23;49.37;101265.53;5144260;27;20062;-65
2023/07/19 09:59:56;;;;;;;6.65;1.70;;;;;;;21.25;49.43;101260.59;5136090;27;20051;-67
2023/07/19 10:02:26;;;;;;;5.03;1.70;;;;;;;21.26;49.67;101261.41;5140323;27;20051;-66
2023/07/19 10:04:54;;;;;;;4.57;1.50;;;;;;;21.24;49.73;101258.97;5138296;27;20107;-73
2023/07/19 10:07:25;;;;;;;4.72;1.52;;;;;;;21.28;49.71;101265.50;5137075;27;20051;-67
2023/07/19 10:10:13;;;;;;;7.78;1.80;;;;;;;21.34;49.99;101272.56;5137844;27;20339;-67
2023/07/19 10:12:47;;;;;;;4.90;2.20;;;;;;;21.33;50.13;101265.47;5140803;27;20112;-67
2023/07/19 10:15:16;;;;;;;5.28;1.90;;;;;;;21.34;49.85;101272.56;5138251;27;20635;-68
2023/07/19 10:17:58;;;;;;;4.30;1.90;;;;;;;21.34;50.05;101258.91;5138988;27;20047;-68
2023/07/19 10:20:30;;;;;;;7.93;2.17;;;;;;;21.36;50.14;101267.63;5137754;27;20207;-67
2023/07/19 10:22:59;;;;;;;3.55;1.45;;;;;;;21.36;50.24;101267.63;5140784;27;20074;-66
2023/07/19 10:25:28;;;;;;;5.03;1.95;;;;;;;21.38;50.58;101265.44;5138546;27;20078;-68
2023/07/19 10:27:58;;;;;;;5.60;2.20;;;;;;;21.40;50.66;101265.97;5134658;27;20040;-66
2023/07/19 10:30:52;;;;;;;5.78;2.22;;;;;;;21.43;50.66;101261.84;5140141;27;20047;-68
2023/07/19 10:33:24;;;;;;;11.18;3.72;;;;;;;21.50;51.40;101265.09;5135756;27;20069;-68
2023/07/19 10:35:53;;;;;;;8.02;3.22;;;;;;;21.52;51.33;101264.81;5134834;27;20066;-67
2023/07/19 10:38:23;;;;;;;10.07;2.95;;;;;;;21.47;51.59;101245.69;5145992;27;20107;-68
2023/07/19 10:40:55;;;;;;;7.32;2.40;;;;;;;21.56;51.66;101263.13;5142125;27;20074;-69
2023/07/19 10:43:24;;;;;;;9.68;2.53;;;;;;;21.56;52.07;101258.47;5139643;27;20047;-67
2023/07/19 10:46:12;;;;;;;10.25;2.97;;;;;;;21.60;51.27;101272.41;5138408;27;20805;-66
2023/07/19 10:48:42;;;;;;;7.82;2.30;;;;;;;21.58;51.07;101261.75;5139408;27;20383;-73
2023/07/19 10:51:10;;;;;;;7.95;2.83;;;;;;;21.61;51.26;101263.91;5138790;27;20047;-67
2023/07/19 10:53:44;;;;;;;9.23;2.92;;;;;;;21.60;50.77;101262.28;5138004;27;20043;-67
2023/07/19 10:56:13;;;;;;;7.55;2.00;;;;;;;21.63;50.67;101269.91;5137757;27;20051;-64
2023/07/19 10:58:42;;;;;;;4.43;1.70;;;;;;;21.64;50.71;101266.06;5139685;27;20521;-67
2023/07/19 11:01:10;;;;;;;7.55;2.22;;;;;;;21.65;50.54;101261.41;5140965;27;20062;-67
2023/07/19 11:03:40;;;;;;;5.10;1.77;;;;;;;21.67;50.44;101257.28;5127697;27;20073;-67
2023/07/19 11:06:09;;;;;;;6.63;1.90;;;;;;;21.68;50.26;101260.84;5136573;27;20047;-67
2023/07/19 11:08:37;;;;;;;5.75;2.15;;;;;;;21.70;50.41;101262.19;5137912;27;20055;-68
2023/07/19 11:11:05;;;;;;;7.00;1.80;;;;;;;21.71;50.65;101258.34;5139603;27;20035;-67
2023/07/19 11:13:33;;;;;;;3.58;1.50;;;;;;;21.73;50.52;101256.16;5149797;27;20096;-67
2023/07/19 11:16:01;;;;;;;4.93;1.98;;;;;;;21.77;50.36;101251.75;5141142;27;20540;-67
2023/07/19 11:18:30;;;;;;;7.30;1.65;;;;;;;21.82;50.50;101255.53;5134592;27;20073;-67
2023/07/19 11:21:00;;;;;;;5.38;2.15;;;;;;;21.84;50.58;101256.06;5135208;27;20065;-67
2023/07/19 11:23:29;;;;;;;4.32;1.63;;;;;;;21.88;50.52;101249.72;5142835;27;20048;-67
2023/07/19 11:26:04;;;;;;;4.03;1.40;;;;;;;21.87;50.18;101247.28;5142281;27;20058;-67
2023/07/19 11:28:36;;;;;;;6.13;1.75;;;;;;;21.90;50.18;101247.53;5141189;27;20043;-67
2023/07/19 11:31:05;;;;;;;4.43;1.73;;;;;;;21.94;50.45;101253.25;5128440;27;20050;-67